YM Neptune — 9HA2017 — position and weather

sailwx.info

Track history (hours):
 
Tides and Currents Weather Stations Pressure Air Temp Water Temp Dewpoint Dewpoint Depression Visibility Wind Speed Wind Dir Waves Ship Positions

YM Neptune

Last reported at 2018-Aug-07 11:10 UTC. Time now 2018-Aug-14 23:42 UTC.
Position N 43°20' E 033°53'.

Length 119 m; draft 5.5 m.

Type: Ship. MMSI: 249813000.

Date/timePositionNaut miles runAvg speedWind from/ knotsBaromVisibWave heightAir tempDewpointWater temp
2018-Aug-07 11:10N 43°20' E 033°53'210.2
2018-Aug-07 11:00N 43°20' E 033°50'510.0
2018-Aug-07 10:30N 43°21' E 033°44'510.0
2018-Aug-07 09:59N 43°21' E 033°37'5 9.9
2018-Aug-07 09:30N 43°22' E 033°30'6 9.9
2018-Aug-07 08:51N 43°23' E 033°21'5 9.8
2018-Aug-07 08:21N 43°24' E 033°15'5 9.7
2018-Aug-07 07:52N 43°25' E 033°08'5 9.9
2018-Aug-07 07:23N 43°26' E 033°02'410.0
2018-Aug-07 07:00N 43°26' E 032°57'5 9.9
2018-Aug-07 06:30N 43°27' E 032°50'25 9.5
2018-Aug-07 03:52N 43°31' E 032°16'4 9.7
2018-Aug-07 03:27N 43°32' E 032°10'4 9.7
2018-Aug-07 03:00N 43°33' E 032°04'8 9.8
2018-Aug-07 02:13N 43°34' E 031°54'210.0
2018-Aug-07 02:00N 43°34' E 031°51'510.1
2018-Aug-07 01:30N 43°35' E 031°44'510.2
2018-Aug-07 01:00N 43°36' E 031°37'510.3
2018-Aug-07 00:30N 43°37' E 031°30'510.3
2018-Aug-07 00:00N 43°38' E 031°23'510.2
2018-Aug-06 23:30N 43°39' E 031°16'510.3
2018-Aug-06 23:00N 43°40' E 031°09'510.3
2018-Aug-06 22:30N 43°41' E 031°02'510.2
2018-Aug-06 22:00N 43°42' E 030°55'510.2
2018-Aug-06 21:30N 43°43' E 030°49'510.3
2018-Aug-06 21:00N 43°44' E 030°42'510.3
2018-Aug-06 20:30N 43°45' E 030°34'510.3
2018-Aug-06 20:00N 43°45' E 030°27'510.1
2018-Aug-06 19:30N 43°46' E 030°20'510.0
2018-Aug-06 19:00N 43°47' E 030°14'5 9.9
2018-Aug-06 18:30N 43°48' E 030°07'5 9.9
2018-Aug-06 18:00N 43°49' E 030°00'5 9.9
2018-Aug-06 17:30N 43°49' E 029°53'510.0
2018-Aug-06 17:00N 43°50' E 029°47'510.0
2018-Aug-06 16:30N 43°51' E 029°40'510.0
2018-Aug-06 16:00N 43°52' E 029°33'510.1
2018-Aug-06 15:30N 43°53' E 029°26'510.1
2018-Aug-06 14:59N 43°54' E 029°19'510.1
2018-Aug-06 14:30N 43°55' E 029°12'510.2
2018-Aug-06 14:00N 43°56' E 029°05'510.4
2018-Aug-06 13:30N 43°57' E 028°58'510.0
2018-Aug-06 13:00N 43°58' E 028°51'5 9.5
2018-Aug-06 12:30N 44°01' E 028°46'5 9.3
2018-Aug-06 12:01N 44°04' E 028°42'4 7.8
2018-Aug-06 11:30N 44°08' E 028°41'1 1.9
2018-Aug-06 10:59N 44°09' E 028°40'0 0.0
2018-Aug-06 10:29N 44°09' E 028°40'0 0.0
2018-Aug-06 09:59N 44°09' E 028°40'0 0.0
2018-Aug-06 09:29N 44°09' E 028°40'0 0.0
2018-Aug-06 08:59N 44°09' E 028°40'0 0.0
2018-Aug-06 08:26N 44°09' E 028°40'0 0.0
2018-Aug-06 07:59N 44°09' E 028°40'0 0.0
2018-Aug-06 07:29N 44°09' E 028°40'0 0.0
2018-Aug-06 06:59N 44°09' E 028°40'0 0.0
2018-Aug-06 06:29N 44°09' E 028°40'0 0.0
2018-Aug-06 05:59N 44°09' E 028°40'0 0.0
2018-Aug-06 05:29N 44°09' E 028°40'0 0.0
2018-Aug-06 04:59N 44°09' E 028°40'0 0.0
2018-Aug-06 04:29N 44°09' E 028°40'0 0.0
2018-Aug-06 03:59N 44°09' E 028°40'0 0.0
2018-Aug-06 03:29N 44°09' E 028°40'0 0.0
2018-Aug-06 02:59N 44°09' E 028°40'0 0.0
2018-Aug-06 02:29N 44°09' E 028°40'0 0.0
2018-Aug-06 01:59N 44°09' E 028°40'0 0.0
2018-Aug-06 01:29N 44°09' E 028°40'0 0.0
2018-Aug-06 00:59N 44°09' E 028°40'0 0.0
2018-Aug-06 00:29N 44°09' E 028°40'0 0.0
2018-Aug-05 23:59N 44°09' E 028°40'0 0.0
2018-Aug-05 23:29N 44°09' E 028°40'0 0.0
2018-Aug-05 22:59N 44°09' E 028°40'0 0.0
2018-Aug-05 22:29N 44°09' E 028°40'0 0.0
2018-Aug-05 21:59N 44°09' E 028°40'0 0.0
2018-Aug-05 21:20N 44°09' E 028°40'0 0.0
2018-Aug-05 20:59N 44°09' E 028°40'0 0.0
2018-Aug-05 20:29N 44°09' E 028°40'0 0.0
2018-Aug-05 19:59N 44°09' E 028°40'0 0.0
2018-Aug-05 19:29N 44°09' E 028°40'0 0.0
2018-Aug-05 18:59N 44°09' E 028°40'0 0.0
2018-Aug-05 18:29N 44°09' E 028°40'0 0.0
2018-Aug-05 17:59N 44°09' E 028°40'0 0.0
2018-Aug-05 17:29N 44°09' E 028°40'0 0.0
2018-Aug-05 16:59N 44°09' E 028°40'0 0.0
2018-Aug-05 15:38N 44°09' E 028°40'0 0.0
2018-Aug-05 15:29N 44°09' E 028°40'0 0.0
2018-Aug-05 14:59N 44°09' E 028°40'0 0.0
2018-Aug-05 13:59N 44°09' E 028°40'0 0.0
2018-Aug-05 13:29N 44°09' E 028°40'0 0.0
2018-Aug-05 12:59N 44°09' E 028°40'0 0.0
2018-Aug-05 12:29N 44°09' E 028°40'0 0.0
2018-Aug-05 11:59N 44°09' E 028°40'0 0.0
2018-Aug-05 11:29N 44°09' E 028°40'0 0.0
2018-Aug-05 10:59N 44°09' E 028°40'0 0.0
2018-Aug-05 10:29N 44°09' E 028°40'0 0.0
2018-Aug-05 09:59N 44°09' E 028°40'0 0.0
2018-Aug-05 09:29N 44°09' E 028°40'0 0.0
2018-Aug-05 08:59N 44°09' E 028°40'0 0.0
2018-Aug-05 08:29N 44°09' E 028°40'0 0.0
2018-Aug-05 07:59N 44°09' E 028°40'0 0.0
2018-Aug-05 07:29N 44°09' E 028°40'0 0.0
2018-Aug-05 06:59N 44°09' E 028°40'0 0.0
2018-Aug-05 06:29N 44°09' E 028°40'0 0.0
2018-Aug-05 05:59N 44°09' E 028°40'0 0.0
2018-Aug-05 05:26N 44°09' E 028°40'0 0.0
2018-Aug-05 04:59N 44°09' E 028°40'0 0.0
2018-Aug-05 04:29N 44°09' E 028°40'0 0.0
2018-Aug-05 03:59N 44°09' E 028°40'0 0.0
2018-Aug-05 03:29N 44°09' E 028°40'0 0.0
2018-Aug-05 02:59N 44°09' E 028°40'0 0.0
2018-Aug-05 02:29N 44°09' E 028°40'0 0.0
2018-Aug-05 01:59N 44°09' E 028°40'0 0.0
2018-Aug-05 01:29N 44°09' E 028°40'0 0.0
2018-Aug-05 00:59N 44°09' E 028°40'0 0.0
2018-Aug-05 00:29N 44°09' E 028°40'0 0.0
2018-Aug-04 23:59N 44°09' E 028°40'0 0.0
2018-Aug-04 23:29N 44°09' E 028°40'0 0.0
2018-Aug-04 22:59N 44°09' E 028°40'0 0.0
2018-Aug-04 22:29N 44°09' E 028°40'0 0.0
2018-Aug-04 22:00N 44°09' E 028°40'0 0.9
2018-Aug-04 21:31N 44°09' E 028°40'3 6.1
2018-Aug-04 21:00N 44°06' E 028°42'3 5.3
2018-Aug-04 20:30N 44°04' E 028°45'4 7.6
2018-Aug-04 20:00N 44°01' E 028°48'4 7.5
2018-Aug-04 19:30N 43°58' E 028°51'4 7.2
2018-Aug-04 19:00N 43°55' E 028°54'4 7.8
2018-Aug-04 18:30N 43°51' E 028°55'4 8.8
2018-Aug-04 18:00N 43°47' E 028°56'5 9.1
2018-Aug-04 17:30N 43°43' E 028°56'5 9.2
2018-Aug-04 17:00N 43°38' E 028°57'5 9.2
2018-Aug-04 16:30N 43°33' E 028°57'5 9.1
2018-Aug-04 16:00N 43°29' E 028°58'5 9.0
2018-Aug-04 15:30N 43°24' E 028°58'4 8.9
2018-Aug-04 15:00N 43°20' E 028°59'4 8.7
2018-Aug-04 14:30N 43°16' E 028°59'4 8.7
2018-Aug-04 14:00N 43°11' E 028°60'4 8.7
2018-Aug-04 13:30N 43°07' E 028°60'4 8.8
2018-Aug-04 13:00N 43°03' E 029°01'4 8.7
2018-Aug-04 12:31N 42°58' E 029°01'5 8.6
2018-Aug-04 11:59N 42°54' E 029°02'4 8.6
2018-Aug-04 11:31N 42°50' E 029°03'4 8.6
2018-Aug-04 11:00N 42°45' E 029°04'4 8.6
2018-Aug-04 10:30N 42°41' E 029°04'4 8.6
2018-Aug-04 10:00N 42°37' E 029°05'4 8.7
2018-Aug-04 09:30N 42°32' E 029°05'4 8.7
2018-Aug-04 09:00N 42°28' E 029°06'4 8.6
2018-Aug-04 08:31N 42°24' E 029°06'4 8.7
2018-Aug-04 08:01N 42°20' E 029°07'4 8.6
2018-Aug-04 07:30N 42°15' E 029°07'4 8.7
2018-Aug-04 07:00N 42°11' E 029°08'4 8.6
2018-Aug-04 06:30N 42°07' E 029°09'  
2018-Aug-01 13:55N 37°36' E 023°50'4 9.2
2018-Aug-01 13:30N 37°38' E 023°46'5 9.2
2018-Aug-01 13:00N 37°41' E 023°42'5 9.4
2018-Aug-01 12:30N 37°45' E 023°39'5 9.6
2018-Aug-01 12:01N 37°50' E 023°36'5 9.4
2018-Aug-01 11:30N 37°54' E 023°35'4 7.0
2018-Aug-01 11:01N 37°57' E 023°33'4 8.6
2018-Aug-01 10:30N 38°01' E 023°31'0 0.4
2018-Aug-01 09:59N 38°02' E 023°31'0 0.3
2018-Aug-01 09:29N 38°01' E 023°31'0 0.1
2018-Aug-01 08:59N 38°01' E 023°31'0 0.2
2018-Aug-01 08:29N 38°01' E 023°31'0 0.1
2018-Aug-01 07:59N 38°01' E 023°31'1 1.5
2018-Aug-01 07:30N 38°02' E 023°30'0 0.3
2018-Aug-01 06:59N 38°02' E 023°31'0 0.0
2018-Aug-01 06:29N 38°02' E 023°31'0 0.0
2018-Aug-01 05:59N 38°02' E 023°31'0 0.0
2018-Aug-01 05:29N 38°02' E 023°31'0 0.0
2018-Aug-01 04:56N 38°02' E 023°31'0 0.0
2018-Aug-01 04:23N 38°02' E 023°31'0 0.0
2018-Aug-01 03:59N 38°02' E 023°31'0 0.0
2018-Aug-01 03:29N 38°02' E 023°31'0 0.0
2018-Aug-01 02:59N 38°02' E 023°31'0 0.0
2018-Aug-01 02:29N 38°02' E 023°31'0 0.0
2018-Aug-01 01:59N 38°02' E 023°31'0 0.0
2018-Aug-01 01:29N 38°02' E 023°31'0 0.0
2018-Aug-01 00:59N 38°02' E 023°31'0 0.0
2018-Jul-31 22:29N 38°02' E 023°31'0 0.0
2018-Jul-31 21:59N 38°02' E 023°31'0 0.0
2018-Jul-31 21:29N 38°02' E 023°31'0 0.0
2018-Jul-31 20:59N 38°02' E 023°31'0 0.0
2018-Jul-31 20:29N 38°02' E 023°31'0 0.0
2018-Jul-31 19:59N 38°02' E 023°31'0 0.0
2018-Jul-31 19:29N 38°02' E 023°31'0 0.0
2018-Jul-31 18:59N 38°02' E 023°31'0 0.0
2018-Jul-31 18:29N 38°02' E 023°31'0 0.0
2018-Jul-31 17:59N 38°02' E 023°31'0 0.0
2018-Jul-31 17:29N 38°02' E 023°31'0 0.0
2018-Jul-31 16:59N 38°02' E 023°31'0 0.0
2018-Jul-31 16:29N 38°02' E 023°31'0 0.0
2018-Jul-31 15:56N 38°02' E 023°31'0 0.0
2018-Jul-31 15:26N 38°02' E 023°31'0 0.0
2018-Jul-31 14:59N 38°02' E 023°31'0 0.0
2018-Jul-31 14:29N 38°02' E 023°31'0 0.0
2018-Jul-31 13:59N 38°02' E 023°31'0 0.0
2018-Jul-31 13:29N 38°02' E 023°31'0 0.0
2018-Jul-31 12:59N 38°02' E 023°31'0 0.0
2018-Jul-31 12:29N 38°02' E 023°31'0 0.0
2018-Jul-31 11:59N 38°02' E 023°31'0 0.0
2018-Jul-31 11:29N 38°02' E 023°31'0 0.0
2018-Jul-31 10:59N 38°02' E 023°31'0 0.0
2018-Jul-31 10:29N 38°02' E 023°31'0 0.0
2018-Jul-31 09:59N 38°02' E 023°31'0 0.0
2018-Jul-31 09:29N 38°02' E 023°31'0 0.0
2018-Jul-31 08:59N 38°02' E 023°31'0 0.0
2018-Jul-31 08:29N 38°02' E 023°31'0 0.0
2018-Jul-31 07:59N 38°02' E 023°31'0 0.0
2018-Jul-31 07:29N 38°02' E 023°31'0 0.0
2018-Jul-31 06:59N 38°02' E 023°31'0 0.0
2018-Jul-31 06:29N 38°02' E 023°31'0 0.0
2018-Jul-31 05:59N 38°02' E 023°31'0 0.0
2018-Jul-31 05:29N 38°02' E 023°31'0 0.0
2018-Jul-31 04:56N 38°02' E 023°31'0 0.0
2018-Jul-31 04:29N 38°02' E 023°31'0 0.0
2018-Jul-31 03:59N 38°02' E 023°31'0 0.0
2018-Jul-31 03:29N 38°02' E 023°31'0 0.0
2018-Jul-31 02:59N 38°02' E 023°31'0 0.0
2018-Jul-31 02:29N 38°02' E 023°31'0 0.0
2018-Jul-31 01:59N 38°02' E 023°31'0 0.0
2018-Jul-31 01:29N 38°02' E 023°31'0 0.0
2018-Jul-31 00:59N 38°02' E 023°31'0 0.0
2018-Jul-31 00:29N 38°02' E 023°31'0 0.0
2018-Jul-30 23:59N 38°02' E 023°31'0 0.0
2018-Jul-30 23:29N 38°02' E 023°31'0 0.0
2018-Jul-30 22:59N 38°02' E 023°31'0 0.0
2018-Jul-30 22:29N 38°02' E 023°31'0 0.0
2018-Jul-30 21:59N 38°02' E 023°31'0 0.0
2018-Jul-30 21:29N 38°02' E 023°31'0 0.0
2018-Jul-30 20:59N 38°02' E 023°31'0 0.0
2018-Jul-30 20:29N 38°02' E 023°31'0 0.0
2018-Jul-30 19:59N 38°02' E 023°31'0 0.0
2018-Jul-30 19:29N 38°02' E 023°31'0 0.0
2018-Jul-30 18:59N 38°02' E 023°31'0 0.0
2018-Jul-30 18:29N 38°02' E 023°31'0 0.0
2018-Jul-30 17:59N 38°02' E 023°31'0 0.0
2018-Jul-30 17:29N 38°02' E 023°31'0 0.0
2018-Jul-30 16:59N 38°02' E 023°31'0 0.0
2018-Jul-30 16:29N 38°02' E 023°31'0 0.0
2018-Jul-30 15:59N 38°02' E 023°31'0 0.0
2018-Jul-30 15:29N 38°02' E 023°31'0 0.0
2018-Jul-30 14:59N 38°02' E 023°31'0 0.0
2018-Jul-30 14:29N 38°02' E 023°31'0 0.0
2018-Jul-30 13:59N 38°02' E 023°31'0 0.0
2018-Jul-30 13:29N 38°02' E 023°31'0 0.0
2018-Jul-30 12:59N 38°02' E 023°31'0 0.0
2018-Jul-30 12:29N 38°02' E 023°31'0 0.0
2018-Jul-30 11:59N 38°02' E 023°31'0 0.0
2018-Jul-30 11:29N 38°02' E 023°31'0 0.0
2018-Jul-30 10:59N 38°02' E 023°31'0 0.0
2018-Jul-30 10:26N 38°02' E 023°31'0 0.0
2018-Jul-30 09:59N 38°02' E 023°31'0 0.0
2018-Jul-30 09:29N 38°02' E 023°31'0 0.0
2018-Jul-30 09:01N 38°02' E 023°31'1 1.8
2018-Jul-30 08:30N 38°02' E 023°31'0 0.2
2018-Jul-30 08:01N 38°01' E 023°31'0 0.0
2018-Jul-30 07:30N 38°01' E 023°31'0 0.0
2018-Jul-30 07:00N 38°01' E 023°31'0 0.1
2018-Jul-30 06:30N 38°01' E 023°31'0 0.0
2018-Jul-30 06:00N 38°01' E 023°31'0 0.0
2018-Jul-30 05:30N 38°01' E 023°31'0 0.0
2018-Jul-30 05:00N 38°01' E 023°31'0 0.0
2018-Jul-30 04:30N 38°01' E 023°31'0 0.0
2018-Jul-30 04:00N 38°01' E 023°31'0 0.0
2018-Jul-30 03:30N 38°01' E 023°31'0 0.0
2018-Jul-30 03:00N 38°01' E 023°31'0 0.1
2018-Jul-30 02:30N 38°01' E 023°31'0 0.0
2018-Jul-30 02:00N 38°01' E 023°31'0 0.0
2018-Jul-30 01:30N 38°01' E 023°31'0 0.0
2018-Jul-30 01:00N 38°01' E 023°31'0 0.0
2018-Jul-30 00:30N 38°01' E 023°31'0 0.0
2018-Jul-30 00:00N 38°01' E 023°31'0 0.0
2018-Jul-29 23:30N 38°01' E 023°31'0 0.0
2018-Jul-29 23:00N 38°01' E 023°31'0 0.1
2018-Jul-29 22:30N 38°01' E 023°32'0 0.0
2018-Jul-29 21:57N 38°01' E 023°32'0 0.1
2018-Jul-29 21:30N 38°01' E 023°31'0 0.0
2018-Jul-29 21:00N 38°01' E 023°31'0 0.1
2018-Jul-29 20:30N 38°01' E 023°31'0 0.1
2018-Jul-29 20:00N 38°01' E 023°32'0 0.0
2018-Jul-29 19:30N 38°02' E 023°32'0 0.0
2018-Jul-29 19:00N 38°02' E 023°32'0 0.0
2018-Jul-29 18:30N 38°02' E 023°32'0 0.0
2018-Jul-29 18:00N 38°02' E 023°32'0 0.0
2018-Jul-29 17:30N 38°02' E 023°32'0 0.0
2018-Jul-29 17:00N 38°02' E 023°32'0 0.0
2018-Jul-29 16:30N 38°02' E 023°32'0 0.0
2018-Jul-29 16:00N 38°02' E 023°32'0 0.0
2018-Jul-29 15:30N 38°02' E 023°32'0 0.0
2018-Jul-29 15:00N 38°02' E 023°32'0 0.1
2018-Jul-29 14:00N 38°01' E 023°31'0 0.0
2018-Jul-29 13:30N 38°01' E 023°31'0 0.0
2018-Jul-29 13:00N 38°01' E 023°31'0 0.2
2018-Jul-29 12:30N 38°01' E 023°31'0 0.1
2018-Jul-29 12:00N 38°02' E 023°31'0 0.2
2018-Jul-29 11:30N 38°01' E 023°31'0 0.2
2018-Jul-29 11:00N 38°01' E 023°31'0 0.3
2018-Jul-29 10:30N 38°02' E 023°32'0 0.1
2018-Jul-29 10:00N 38°02' E 023°32'0 0.0
2018-Jul-29 09:30N 38°02' E 023°32'0 0.0
2018-Jul-29 09:00N 38°02' E 023°32'0 0.2
2018-Jul-29 08:30N 38°02' E 023°32'0 0.1
2018-Jul-29 08:00N 38°02' E 023°32'1 1.6
2018-Jul-29 07:30N 38°01' E 023°32'4 7.7
2018-Jul-29 07:00N 37°57' E 023°34'3 6.8
2018-Jul-29 06:30N 37°55' E 023°37'0 0.5
2018-Jul-29 06:00N 37°55' E 023°36'0 0.9
2018-Jul-29 05:30N 37°54' E 023°36'2 4.1
2018-Jul-29 05:00N 37°54' E 023°33'0 0.2
2018-Jul-29 04:30N 37°54' E 023°34'0 0.0
2018-Jul-29 04:00N 37°54' E 023°34'0 0.0
2018-Jul-29 03:30N 37°54' E 023°34'0 0.0
2018-Jul-29 03:00N 37°54' E 023°34'0 0.0
2018-Jul-29 02:27N 37°54' E 023°34'0 0.0
2018-Jul-29 02:00N 37°54' E 023°34'0 0.0
2018-Jul-29 01:30N 37°54' E 023°34'0 0.1
2018-Jul-29 01:00N 37°54' E 023°34'0 0.0
2018-Jul-29 00:30N 37°54' E 023°34'0 0.0
2018-Jul-29 00:00N 37°54' E 023°34'0 0.1
2018-Jul-28 23:30N 37°54' E 023°34'0 0.0
2018-Jul-28 23:00N 37°54' E 023°34'0 0.1
2018-Jul-28 22:30N 37°54' E 023°34'0 0.0
2018-Jul-28 22:00N 37°54' E 023°34'0 0.0
2018-Jul-28 21:30N 37°54' E 023°34'0 0.0
2018-Jul-28 21:00N 37°54' E 023°34'0 0.0
2018-Jul-28 20:30N 37°54' E 023°34'0 0.2
2018-Jul-28 20:00N 37°54' E 023°33'0 0.0
2018-Jul-28 19:30N 37°54' E 023°33'0 0.1
2018-Jul-28 19:00N 37°54' E 023°33'0 0.9
2018-Jul-28 18:30N 37°54' E 023°34'4 7.8
2018-Jul-28 18:00N 37°52' E 023°38'510.1
2018-Jul-28 17:30N 37°47' E 023°41'510.2
2018-Jul-28 17:00N 37°43' E 023°44'510.2
2018-Jul-28 16:30N 37°38' E 023°46'510.2
2018-Jul-28 16:00N 37°33' E 023°48'510.1
2018-Jul-28 15:30N 37°28' E 023°49'510.2
2018-Jul-28 15:00N 37°23' E 023°48'710.0
2018-Jul-28 14:16N 37°16' E 023°48'310.1
2018-Jul-28 14:00N 37°13' E 023°47'5 9.9
2018-Jul-28 13:30N 37°08' E 023°47'  
Track history (hours):
 
Tides and Currents Weather Stations Pressure Air Temp Water Temp Dewpoint Dewpoint Depression Visibility Wind Speed Wind Dir Waves Ship Positions

YM Neptune

Last reported at 2018-Aug-07 11:10 UTC. Time now 2018-Aug-14 23:42 UTC.
Position N 43°20' E 033°53'.

Length 119 m; draft 5.5 m.

Type: Ship. MMSI: 249813000.

Date/timePositionNaut miles runAvg speedWind from/ knotsBaromVisibWave heightAir tempDewpointWater temp
2018-Aug-07 11:10N 43°20' E 033°53'210.2
2018-Aug-07 11:00N 43°20' E 033°50'510.0
2018-Aug-07 10:30N 43°21' E 033°44'510.0
2018-Aug-07 09:59N 43°21' E 033°37'5 9.9
2018-Aug-07 09:30N 43°22' E 033°30'6 9.9
2018-Aug-07 08:51N 43°23' E 033°21'5 9.8
2018-Aug-07 08:21N 43°24' E 033°15'5 9.7
2018-Aug-07 07:52N 43°25' E 033°08'5 9.9
2018-Aug-07 07:23N 43°26' E 033°02'410.0
2018-Aug-07 07:00N 43°26' E 032°57'5 9.9
2018-Aug-07 06:30N 43°27' E 032°50'25 9.5
2018-Aug-07 03:52N 43°31' E 032°16'4 9.7
2018-Aug-07 03:27N 43°32' E 032°10'4 9.7
2018-Aug-07 03:00N 43°33' E 032°04'8 9.8
2018-Aug-07 02:13N 43°34' E 031°54'210.0
2018-Aug-07 02:00N 43°34' E 031°51'510.1
2018-Aug-07 01:30N 43°35' E 031°44'510.2
2018-Aug-07 01:00N 43°36' E 031°37'510.3
2018-Aug-07 00:30N 43°37' E 031°30'510.3
2018-Aug-07 00:00N 43°38' E 031°23'510.2
2018-Aug-06 23:30N 43°39' E 031°16'510.3
2018-Aug-06 23:00N 43°40' E 031°09'510.3
2018-Aug-06 22:30N 43°41' E 031°02'510.2
2018-Aug-06 22:00N 43°42' E 030°55'510.2
2018-Aug-06 21:30N 43°43' E 030°49'510.3
2018-Aug-06 21:00N 43°44' E 030°42'510.3
2018-Aug-06 20:30N 43°45' E 030°34'510.3
2018-Aug-06 20:00N 43°45' E 030°27'510.1
2018-Aug-06 19:30N 43°46' E 030°20'510.0
2018-Aug-06 19:00N 43°47' E 030°14'5 9.9
2018-Aug-06 18:30N 43°48' E 030°07'5 9.9
2018-Aug-06 18:00N 43°49' E 030°00'5 9.9
2018-Aug-06 17:30N 43°49' E 029°53'510.0
2018-Aug-06 17:00N 43°50' E 029°47'510.0
2018-Aug-06 16:30N 43°51' E 029°40'510.0
2018-Aug-06 16:00N 43°52' E 029°33'510.1
2018-Aug-06 15:30N 43°53' E 029°26'510.1
2018-Aug-06 14:59N 43°54' E 029°19'510.1
2018-Aug-06 14:30N 43°55' E 029°12'510.2
2018-Aug-06 14:00N 43°56' E 029°05'510.4
2018-Aug-06 13:30N 43°57' E 028°58'510.0
2018-Aug-06 13:00N 43°58' E 028°51'5 9.5
2018-Aug-06 12:30N 44°01' E 028°46'5 9.3
2018-Aug-06 12:01N 44°04' E 028°42'4 7.8
2018-Aug-06 11:30N 44°08' E 028°41'1 1.9
2018-Aug-06 10:59N 44°09' E 028°40'0 0.0
2018-Aug-06 10:29N 44°09' E 028°40'0 0.0
2018-Aug-06 09:59N 44°09' E 028°40'0 0.0
2018-Aug-06 09:29N 44°09' E 028°40'0 0.0
2018-Aug-06 08:59N 44°09' E 028°40'0 0.0
2018-Aug-06 08:26N 44°09' E 028°40'0 0.0
2018-Aug-06 07:59N 44°09' E 028°40'0 0.0
2018-Aug-06 07:29N 44°09' E 028°40'0 0.0
2018-Aug-06 06:59N 44°09' E 028°40'0 0.0
2018-Aug-06 06:29N 44°09' E 028°40'0 0.0
2018-Aug-06 05:59N 44°09' E 028°40'0 0.0
2018-Aug-06 05:29N 44°09' E 028°40'0 0.0
2018-Aug-06 04:59N 44°09' E 028°40'0 0.0
2018-Aug-06 04:29N 44°09' E 028°40'0 0.0
2018-Aug-06 03:59N 44°09' E 028°40'0 0.0
2018-Aug-06 03:29N 44°09' E 028°40'0 0.0
2018-Aug-06 02:59N 44°09' E 028°40'0 0.0
2018-Aug-06 02:29N 44°09' E 028°40'0 0.0
2018-Aug-06 01:59N 44°09' E 028°40'0 0.0
2018-Aug-06 01:29N 44°09' E 028°40'0 0.0
2018-Aug-06 00:59N 44°09' E 028°40'0 0.0
2018-Aug-06 00:29N 44°09' E 028°40'0 0.0
2018-Aug-05 23:59N 44°09' E 028°40'0 0.0
2018-Aug-05 23:29N 44°09' E 028°40'0 0.0
2018-Aug-05 22:59N 44°09' E 028°40'0 0.0
2018-Aug-05 22:29N 44°09' E 028°40'0 0.0
2018-Aug-05 21:59N 44°09' E 028°40'0 0.0
2018-Aug-05 21:20N 44°09' E 028°40'0 0.0
2018-Aug-05 20:59N 44°09' E 028°40'0 0.0
2018-Aug-05 20:29N 44°09' E 028°40'0 0.0
2018-Aug-05 19:59N 44°09' E 028°40'0 0.0
2018-Aug-05 19:29N 44°09' E 028°40'0 0.0
2018-Aug-05 18:59N 44°09' E 028°40'0 0.0
2018-Aug-05 18:29N 44°09' E 028°40'0 0.0
2018-Aug-05 17:59N 44°09' E 028°40'0 0.0
2018-Aug-05 17:29N 44°09' E 028°40'0 0.0
2018-Aug-05 16:59N 44°09' E 028°40'0 0.0
2018-Aug-05 15:38N 44°09' E 028°40'0 0.0
2018-Aug-05 15:29N 44°09' E 028°40'0 0.0
2018-Aug-05 14:59N 44°09' E 028°40'0 0.0
2018-Aug-05 13:59N 44°09' E 028°40'0 0.0
2018-Aug-05 13:29N 44°09' E 028°40'0 0.0
2018-Aug-05 12:59N 44°09' E 028°40'0 0.0
2018-Aug-05 12:29N 44°09' E 028°40'0 0.0
2018-Aug-05 11:59N 44°09' E 028°40'0 0.0
2018-Aug-05 11:29N 44°09' E 028°40'0 0.0
2018-Aug-05 10:59N 44°09' E 028°40'0 0.0
2018-Aug-05 10:29N 44°09' E 028°40'0 0.0
2018-Aug-05 09:59N 44°09' E 028°40'0 0.0
2018-Aug-05 09:29N 44°09' E 028°40'0 0.0
2018-Aug-05 08:59N 44°09' E 028°40'0 0.0
2018-Aug-05 08:29N 44°09' E 028°40'0 0.0
2018-Aug-05 07:59N 44°09' E 028°40'0 0.0
2018-Aug-05 07:29N 44°09' E 028°40'0 0.0
2018-Aug-05 06:59N 44°09' E 028°40'0 0.0
2018-Aug-05 06:29N 44°09' E 028°40'0 0.0
2018-Aug-05 05:59N 44°09' E 028°40'0 0.0
2018-Aug-05 05:26N 44°09' E 028°40'0 0.0
2018-Aug-05 04:59N 44°09' E 028°40'0 0.0
2018-Aug-05 04:29N 44°09' E 028°40'0 0.0
2018-Aug-05 03:59N 44°09' E 028°40'0 0.0
2018-Aug-05 03:29N 44°09' E 028°40'0 0.0
2018-Aug-05 02:59N 44°09' E 028°40'0 0.0
2018-Aug-05 02:29N 44°09' E 028°40'0 0.0
2018-Aug-05 01:59N 44°09' E 028°40'0 0.0
2018-Aug-05 01:29N 44°09' E 028°40'0 0.0
2018-Aug-05 00:59N 44°09' E 028°40'0 0.0
2018-Aug-05 00:29N 44°09' E 028°40'0 0.0
2018-Aug-04 23:59N 44°09' E 028°40'0 0.0
2018-Aug-04 23:29N 44°09' E 028°40'0 0.0
2018-Aug-04 22:59N 44°09' E 028°40'0 0.0
2018-Aug-04 22:29N 44°09' E 028°40'0 0.0
2018-Aug-04 22:00N 44°09' E 028°40'0 0.9
2018-Aug-04 21:31N 44°09' E 028°40'3 6.1
2018-Aug-04 21:00N 44°06' E 028°42'3 5.3
2018-Aug-04 20:30N 44°04' E 028°45'4 7.6
2018-Aug-04 20:00N 44°01' E 028°48'4 7.5
2018-Aug-04 19:30N 43°58' E 028°51'4 7.2
2018-Aug-04 19:00N 43°55' E 028°54'4 7.8
2018-Aug-04 18:30N 43°51' E 028°55'4 8.8
2018-Aug-04 18:00N 43°47' E 028°56'5 9.1
2018-Aug-04 17:30N 43°43' E 028°56'5 9.2
2018-Aug-04 17:00N 43°38' E 028°57'5 9.2
2018-Aug-04 16:30N 43°33' E 028°57'5 9.1
2018-Aug-04 16:00N 43°29' E 028°58'5 9.0
2018-Aug-04 15:30N 43°24' E 028°58'4 8.9
2018-Aug-04 15:00N 43°20' E 028°59'4 8.7
2018-Aug-04 14:30N 43°16' E 028°59'4 8.7
2018-Aug-04 14:00N 43°11' E 028°60'4 8.7
2018-Aug-04 13:30N 43°07' E 028°60'4 8.8
2018-Aug-04 13:00N 43°03' E 029°01'4 8.7
2018-Aug-04 12:31N 42°58' E 029°01'5 8.6
2018-Aug-04 11:59N 42°54' E 029°02'4 8.6
2018-Aug-04 11:31N 42°50' E 029°03'4 8.6
2018-Aug-04 11:00N 42°45' E 029°04'4 8.6
2018-Aug-04 10:30N 42°41' E 029°04'4 8.6
2018-Aug-04 10:00N 42°37' E 029°05'4 8.7
2018-Aug-04 09:30N 42°32' E 029°05'4 8.7
2018-Aug-04 09:00N 42°28' E 029°06'4 8.6
2018-Aug-04 08:31N 42°24' E 029°06'4 8.7
2018-Aug-04 08:01N 42°20' E 029°07'4 8.6
2018-Aug-04 07:30N 42°15' E 029°07'4 8.7
2018-Aug-04 07:00N 42°11' E 029°08'4 8.6
2018-Aug-04 06:30N 42°07' E 029°09'  
2018-Aug-01 13:55N 37°36' E 023°50'4 9.2
2018-Aug-01 13:30N 37°38' E 023°46'5 9.2
2018-Aug-01 13:00N 37°41' E 023°42'5 9.4
2018-Aug-01 12:30N 37°45' E 023°39'5 9.6
2018-Aug-01 12:01N 37°50' E 023°36'5 9.4
2018-Aug-01 11:30N 37°54' E 023°35'4 7.0
2018-Aug-01 11:01N 37°57' E 023°33'4 8.6
2018-Aug-01 10:30N 38°01' E 023°31'0 0.4
2018-Aug-01 09:59N 38°02' E 023°31'0 0.3
2018-Aug-01 09:29N 38°01' E 023°31'0 0.1
2018-Aug-01 08:59N 38°01' E 023°31'0 0.2
2018-Aug-01 08:29N 38°01' E 023°31'0 0.1
2018-Aug-01 07:59N 38°01' E 023°31'1 1.5
2018-Aug-01 07:30N 38°02' E 023°30'0 0.3
2018-Aug-01 06:59N 38°02' E 023°31'0 0.0
2018-Aug-01 06:29N 38°02' E 023°31'0 0.0
2018-Aug-01 05:59N 38°02' E 023°31'0 0.0
2018-Aug-01 05:29N 38°02' E 023°31'0 0.0
2018-Aug-01 04:56N 38°02' E 023°31'0 0.0
2018-Aug-01 04:23N 38°02' E 023°31'0 0.0
2018-Aug-01 03:59N 38°02' E 023°31'0 0.0
2018-Aug-01 03:29N 38°02' E 023°31'0 0.0
2018-Aug-01 02:59N 38°02' E 023°31'0 0.0
2018-Aug-01 02:29N 38°02' E 023°31'0 0.0
2018-Aug-01 01:59N 38°02' E 023°31'0 0.0
2018-Aug-01 01:29N 38°02' E 023°31'0 0.0
2018-Aug-01 00:59N 38°02' E 023°31'0 0.0
2018-Jul-31 22:29N 38°02' E 023°31'0 0.0
2018-Jul-31 21:59N 38°02' E 023°31'0 0.0
2018-Jul-31 21:29N 38°02' E 023°31'0 0.0
2018-Jul-31 20:59N 38°02' E 023°31'0 0.0
2018-Jul-31 20:29N 38°02' E 023°31'0 0.0
2018-Jul-31 19:59N 38°02' E 023°31'0 0.0
2018-Jul-31 19:29N 38°02' E 023°31'0 0.0
2018-Jul-31 18:59N 38°02' E 023°31'0 0.0
2018-Jul-31 18:29N 38°02' E 023°31'0 0.0
2018-Jul-31 17:59N 38°02' E 023°31'0 0.0
2018-Jul-31 17:29N 38°02' E 023°31'0 0.0
2018-Jul-31 16:59N 38°02' E 023°31'0 0.0
2018-Jul-31 16:29N 38°02' E 023°31'0 0.0
2018-Jul-31 15:56N 38°02' E 023°31'0 0.0
2018-Jul-31 15:26N 38°02' E 023°31'0 0.0
2018-Jul-31 14:59N 38°02' E 023°31'0 0.0
2018-Jul-31 14:29N 38°02' E 023°31'0 0.0
2018-Jul-31 13:59N 38°02' E 023°31'0 0.0
2018-Jul-31 13:29N 38°02' E 023°31'0 0.0
2018-Jul-31 12:59N 38°02' E 023°31'0 0.0
2018-Jul-31 12:29N 38°02' E 023°31'0 0.0
2018-Jul-31 11:59N 38°02' E 023°31'0 0.0
2018-Jul-31 11:29N 38°02' E 023°31'0 0.0
2018-Jul-31 10:59N 38°02' E 023°31'0 0.0
2018-Jul-31 10:29N 38°02' E 023°31'0 0.0
2018-Jul-31 09:59N 38°02' E 023°31'0 0.0
2018-Jul-31 09:29N 38°02' E 023°31'0 0.0
2018-Jul-31 08:59N 38°02' E 023°31'0 0.0
2018-Jul-31 08:29N 38°02' E 023°31'0 0.0
2018-Jul-31 07:59N 38°02' E 023°31'0 0.0
2018-Jul-31 07:29N 38°02' E 023°31'0 0.0
2018-Jul-31 06:59N 38°02' E 023°31'0 0.0
2018-Jul-31 06:29N 38°02' E 023°31'0 0.0
2018-Jul-31 05:59N 38°02' E 023°31'0 0.0
2018-Jul-31 05:29N 38°02' E 023°31'0 0.0
2018-Jul-31 04:56N 38°02' E 023°31'0 0.0
2018-Jul-31 04:29N 38°02' E 023°31'0 0.0
2018-Jul-31 03:59N 38°02' E 023°31'0 0.0
2018-Jul-31 03:29N 38°02' E 023°31'0 0.0
2018-Jul-31 02:59N 38°02' E 023°31'0 0.0
2018-Jul-31 02:29N 38°02' E 023°31'0 0.0
2018-Jul-31 01:59N 38°02' E 023°31'0 0.0
2018-Jul-31 01:29N 38°02' E 023°31'0 0.0
2018-Jul-31 00:59N 38°02' E 023°31'0 0.0
2018-Jul-31 00:29N 38°02' E 023°31'0 0.0
2018-Jul-30 23:59N 38°02' E 023°31'0 0.0
2018-Jul-30 23:29N 38°02' E 023°31'0 0.0
2018-Jul-30 22:59N 38°02' E 023°31'0 0.0
2018-Jul-30 22:29N 38°02' E 023°31'0 0.0
2018-Jul-30 21:59N 38°02' E 023°31'0 0.0
2018-Jul-30 21:29N 38°02' E 023°31'0 0.0
2018-Jul-30 20:59N 38°02' E 023°31'0 0.0
2018-Jul-30 20:29N 38°02' E 023°31'0 0.0
2018-Jul-30 19:59N 38°02' E 023°31'0 0.0
2018-Jul-30 19:29N 38°02' E 023°31'0 0.0
2018-Jul-30 18:59N 38°02' E 023°31'0 0.0
2018-Jul-30 18:29N 38°02' E 023°31'0 0.0
2018-Jul-30 17:59N 38°02' E 023°31'0 0.0
2018-Jul-30 17:29N 38°02' E 023°31'0 0.0
2018-Jul-30 16:59N 38°02' E 023°31'0 0.0
2018-Jul-30 16:29N 38°02' E 023°31'0 0.0
2018-Jul-30 15:59N 38°02' E 023°31'0 0.0
2018-Jul-30 15:29N 38°02' E 023°31'0 0.0
2018-Jul-30 14:59N 38°02' E 023°31'0 0.0
2018-Jul-30 14:29N 38°02' E 023°31'0 0.0
2018-Jul-30 13:59N 38°02' E 023°31'0 0.0
2018-Jul-30 13:29N 38°02' E 023°31'0 0.0
2018-Jul-30 12:59N 38°02' E 023°31'0 0.0
2018-Jul-30 12:29N 38°02' E 023°31'0 0.0
2018-Jul-30 11:59N 38°02' E 023°31'0 0.0
2018-Jul-30 11:29N 38°02' E 023°31'0 0.0
2018-Jul-30 10:59N 38°02' E 023°31'0 0.0
2018-Jul-30 10:26N 38°02' E 023°31'0 0.0
2018-Jul-30 09:59N 38°02' E 023°31'0 0.0
2018-Jul-30 09:29N 38°02' E 023°31'0 0.0
2018-Jul-30 09:01N 38°02' E 023°31'1 1.8
2018-Jul-30 08:30N 38°02' E 023°31'0 0.2
2018-Jul-30 08:01N 38°01' E 023°31'0 0.0
2018-Jul-30 07:30N 38°01' E 023°31'0 0.0
2018-Jul-30 07:00N 38°01' E 023°31'0 0.1
2018-Jul-30 06:30N 38°01' E 023°31'0 0.0
2018-Jul-30 06:00N 38°01' E 023°31'0 0.0
2018-Jul-30 05:30N 38°01' E 023°31'0 0.0
2018-Jul-30 05:00N 38°01' E 023°31'0 0.0
2018-Jul-30 04:30N 38°01' E 023°31'0 0.0
2018-Jul-30 04:00N 38°01' E 023°31'0 0.0
2018-Jul-30 03:30N 38°01' E 023°31'0 0.0
2018-Jul-30 03:00N 38°01' E 023°31'0 0.1
2018-Jul-30 02:30N 38°01' E 023°31'0 0.0
2018-Jul-30 02:00N 38°01' E 023°31'0 0.0
2018-Jul-30 01:30N 38°01' E 023°31'0 0.0
2018-Jul-30 01:00N 38°01' E 023°31'0 0.0
2018-Jul-30 00:30N 38°01' E 023°31'0 0.0
2018-Jul-30 00:00N 38°01' E 023°31'0 0.0
2018-Jul-29 23:30N 38°01' E 023°31'0 0.0
2018-Jul-29 23:00N 38°01' E 023°31'0 0.1
2018-Jul-29 22:30N 38°01' E 023°32'0 0.0
2018-Jul-29 21:57N 38°01' E 023°32'0 0.1
2018-Jul-29 21:30N 38°01' E 023°31'0 0.0
2018-Jul-29 21:00N 38°01' E 023°31'0 0.1
2018-Jul-29 20:30N 38°01' E 023°31'0 0.1
2018-Jul-29 20:00N 38°01' E 023°32'0 0.0
2018-Jul-29 19:30N 38°02' E 023°32'0 0.0
2018-Jul-29 19:00N 38°02' E 023°32'0 0.0
2018-Jul-29 18:30N 38°02' E 023°32'0 0.0
2018-Jul-29 18:00N 38°02' E 023°32'0 0.0
2018-Jul-29 17:30N 38°02' E 023°32'0 0.0
2018-Jul-29 17:00N 38°02' E 023°32'0 0.0
2018-Jul-29 16:30N 38°02' E 023°32'0 0.0
2018-Jul-29 16:00N 38°02' E 023°32'0 0.0
2018-Jul-29 15:30N 38°02' E 023°32'0 0.0
2018-Jul-29 15:00N 38°02' E 023°32'0 0.1
2018-Jul-29 14:00N 38°01' E 023°31'0 0.0
2018-Jul-29 13:30N 38°01' E 023°31'0 0.0
2018-Jul-29 13:00N 38°01' E 023°31'0 0.2
2018-Jul-29 12:30N 38°01' E 023°31'0 0.1
2018-Jul-29 12:00N 38°02' E 023°31'0 0.2
2018-Jul-29 11:30N 38°01' E 023°31'0 0.2
2018-Jul-29 11:00N 38°01' E 023°31'0 0.3
2018-Jul-29 10:30N 38°02' E 023°32'0 0.1
2018-Jul-29 10:00N 38°02' E 023°32'0 0.0
2018-Jul-29 09:30N 38°02' E 023°32'0 0.0
2018-Jul-29 09:00N 38°02' E 023°32'0 0.2
2018-Jul-29 08:30N 38°02' E 023°32'0 0.1
2018-Jul-29 08:00N 38°02' E 023°32'1 1.6
2018-Jul-29 07:30N 38°01' E 023°32'4 7.7
2018-Jul-29 07:00N 37°57' E 023°34'3 6.8
2018-Jul-29 06:30N 37°55' E 023°37'0 0.5
2018-Jul-29 06:00N 37°55' E 023°36'0 0.9
2018-Jul-29 05:30N 37°54' E 023°36'2 4.1
2018-Jul-29 05:00N 37°54' E 023°33'0 0.2
2018-Jul-29 04:30N 37°54' E 023°34'0 0.0
2018-Jul-29 04:00N 37°54' E 023°34'0 0.0
2018-Jul-29 03:30N 37°54' E 023°34'0 0.0
2018-Jul-29 03:00N 37°54' E 023°34'0 0.0
2018-Jul-29 02:27N 37°54' E 023°34'0 0.0
2018-Jul-29 02:00N 37°54' E 023°34'0 0.0
2018-Jul-29 01:30N 37°54' E 023°34'0 0.1
2018-Jul-29 01:00N 37°54' E 023°34'0 0.0
2018-Jul-29 00:30N 37°54' E 023°34'0 0.0
2018-Jul-29 00:00N 37°54' E 023°34'0 0.1
2018-Jul-28 23:30N 37°54' E 023°34'0 0.0
2018-Jul-28 23:00N 37°54' E 023°34'0 0.1
2018-Jul-28 22:30N 37°54' E 023°34'0 0.0
2018-Jul-28 22:00N 37°54' E 023°34'0 0.0
2018-Jul-28 21:30N 37°54' E 023°34'0 0.0
2018-Jul-28 21:00N 37°54' E 023°34'0 0.0
2018-Jul-28 20:30N 37°54' E 023°34'0 0.2
2018-Jul-28 20:00N 37°54' E 023°33'0 0.0
2018-Jul-28 19:30N 37°54' E 023°33'0 0.1
2018-Jul-28 19:00N 37°54' E 023°33'0 0.9
2018-Jul-28 18:30N 37°54' E 023°34'4 7.8
2018-Jul-28 18:00N 37°52' E 023°38'510.1
2018-Jul-28 17:30N 37°47' E 023°41'510.2
2018-Jul-28 17:00N 37°43' E 023°44'510.2
2018-Jul-28 16:30N 37°38' E 023°46'510.2
2018-Jul-28 16:00N 37°33' E 023°48'510.1
2018-Jul-28 15:30N 37°28' E 023°49'510.2
2018-Jul-28 15:00N 37°23' E 023°48'710.0
2018-Jul-28 14:16N 37°16' E 023°48'310.1
2018-Jul-28 14:00N 37°13' E 023°47'5 9.9
2018-Jul-28 13:30N 37°08' E 023°47'  

Dump ship's entire track history